createdAt,value
2022-08-07T00:00:07.596Z,2.00
2022-08-07T00:02:39.910Z,2.20
2022-08-07T00:05:08.798Z,2.10
2022-08-07T00:07:40.372Z,2.30
2022-08-07T00:10:27.068Z,1.60
2022-08-07T00:13:00.726Z,1.60
2022-08-07T00:15:38.082Z,1.70
2022-08-07T00:18:19.389Z,1.90
2022-08-07T00:20:46.678Z,2.60
2022-08-07T00:23:14.910Z,2.20
2022-08-07T00:25:51.825Z,2.30
2022-08-07T00:28:33.351Z,1.70
2022-08-07T00:31:04.435Z,1.80
2022-08-07T00:33:34.234Z,1.70
2022-08-07T00:36:00.944Z,2.00
2022-08-07T00:38:31.552Z,2.00
2022-08-07T00:41:01.004Z,2.10
2022-08-07T00:43:59.359Z,2.30
2022-08-07T00:46:14.562Z,1.70
2022-08-07T00:48:42.010Z,1.30
2022-08-07T00:51:10.334Z,1.50
2022-08-07T00:53:39.229Z,1.80
2022-08-07T00:56:18.327Z,2.20
2022-08-07T00:58:47.007Z,1.90
2022-08-07T01:01:15.207Z,1.70
2022-08-07T01:03:55.831Z,2.00
2022-08-07T01:06:29.217Z,2.10
2022-08-07T01:08:58.582Z,1.60
2022-08-07T01:12:23.438Z,1.50
2022-08-07T01:14:17.279Z,1.70
2022-08-07T01:16:48.495Z,1.30
2022-08-07T01:19:19.426Z,2.00
2022-08-07T01:21:49.037Z,1.90
2022-08-07T01:24:18.712Z,2.10
2022-08-07T01:26:51.622Z,2.00
2022-08-07T01:29:19.713Z,2.30
2022-08-07T01:31:48.267Z,1.90
2022-08-07T01:34:15.609Z,2.10
2022-08-07T01:36:44.024Z,1.60
2022-08-07T01:39:11.831Z,1.70
2022-08-07T01:42:01.642Z,1.40
2022-08-07T01:44:30.282Z,1.90
2022-08-07T01:47:01.196Z,2.20
2022-08-07T01:49:41.172Z,2.20
2022-08-07T01:52:11.016Z,2.20
2022-08-07T01:54:44.916Z,2.40
2022-08-07T01:57:24.758Z,2.20
2022-08-07T02:00:01.910Z,1.90
2022-08-07T02:03:12.483Z,1.50
2022-08-07T02:05:43.049Z,1.50
2022-08-07T02:08:20.609Z,1.40
2022-08-07T02:13:56.698Z,2.00
2022-08-07T02:16:29.918Z,2.50
2022-08-07T02:20:06.702Z,2.30
2022-08-07T02:21:58.610Z,2.50
2022-08-07T02:24:29.570Z,3.00
2022-08-07T02:27:00.168Z,2.30
2022-08-07T02:29:31.247Z,1.90
2022-08-07T02:32:00.133Z,1.90
2022-08-07T02:34:28.957Z,2.00
2022-08-07T02:36:59.304Z,1.90
2022-08-07T02:39:43.436Z,1.70
2022-08-07T02:42:16.676Z,1.50
2022-08-07T02:44:48.886Z,2.20
2022-08-07T02:47:19.638Z,2.20
2022-08-07T02:49:57.568Z,1.90
2022-08-07T02:52:40.297Z,2.20
2022-08-07T02:55:28.765Z,2.30
2022-08-07T02:58:13.451Z,2.60
2022-08-07T03:00:46.876Z,1.70
2022-08-07T03:03:22.671Z,1.70
2022-08-07T03:05:53.579Z,1.80
2022-08-07T03:08:29.244Z,2.00
2022-08-07T03:10:57.450Z,1.80
2022-08-07T03:13:24.677Z,2.20
2022-08-07T03:15:58.244Z,2.30
2022-08-07T03:18:36.059Z,2.50
2022-08-07T03:21:08.524Z,2.30
2022-08-07T03:24:20.625Z,2.00
2022-08-07T03:26:31.861Z,2.10
2022-08-07T03:29:03.521Z,2.00
2022-08-07T03:31:42.741Z,2.10
2022-08-07T03:34:18.864Z,2.10
2022-08-07T03:36:53.808Z,1.90
2022-08-07T03:40:00.140Z,2.40
2022-08-07T03:42:10.369Z,2.40
2022-08-07T03:44:38.768Z,2.90
2022-08-07T03:47:14.067Z,2.60
2022-08-07T03:49:47.956Z,2.10
2022-08-07T03:52:26.455Z,2.20
2022-08-07T03:55:07.501Z,2.00
2022-08-07T03:58:34.820Z,2.20
2022-08-07T04:00:29.352Z,2.30
2022-08-07T04:02:59.490Z,2.20
2022-08-07T04:05:39.741Z,2.20
2022-08-07T04:08:16.124Z,2.40
2022-08-07T04:10:54.320Z,2.20
2022-08-07T04:14:10.659Z,2.30
2022-08-07T04:16:31.134Z,2.60
2022-08-07T04:19:01.676Z,2.50
2022-08-07T04:21:33.400Z,2.70
2022-08-07T04:24:07.758Z,2.10
2022-08-07T04:26:34.902Z,2.20
2022-08-07T04:29:03.156Z,2.30
2022-08-07T04:31:39.133Z,1.90
2022-08-07T04:34:24.314Z,2.40
2022-08-07T04:37:01.153Z,2.10
2022-08-07T04:39:29.257Z,1.90
2022-08-07T04:42:04.073Z,2.30
2022-08-07T04:44:30.865Z,2.50
2022-08-07T04:47:57.211Z,2.20
2022-08-07T04:50:20.078Z,2.00
2022-08-07T04:53:27.848Z,2.30
2022-08-07T04:58:16.700Z,2.20
2022-08-07T05:00:20.236Z,2.00
2022-08-07T05:03:59.652Z,2.10
2022-08-07T05:06:43.385Z,1.70
2022-08-07T05:09:55.841Z,1.80
2022-08-07T05:12:37.893Z,2.10
2022-08-07T05:15:24.947Z,2.10
2022-08-07T05:18:06.205Z,2.20
2022-08-07T05:20:50.272Z,2.10
2022-08-07T05:23:29.074Z,2.10
2022-08-07T05:26:10.782Z,1.70
2022-08-07T05:28:46.530Z,1.90
2022-08-07T05:31:19.998Z,1.90
2022-08-07T05:34:04.264Z,1.90
2022-08-07T05:36:35.671Z,1.70
2022-08-07T05:40:05.503Z,1.60
2022-08-07T05:42:02.449Z,2.00
2022-08-07T05:44:34.279Z,1.60
2022-08-07T05:47:01.951Z,1.50
2022-08-07T05:49:58.096Z,1.70
2022-08-07T05:52:32.490Z,1.30
2022-08-07T05:55:06.962Z,1.70
2022-08-07T05:57:42.193Z,1.70
2022-08-07T06:00:16.468Z,1.50
2022-08-07T06:02:49.198Z,1.30
2022-08-07T06:05:18.240Z,1.50
2022-08-07T06:08:13.921Z,1.20
2022-08-07T06:10:41.113Z,1.40
2022-08-07T06:13:13.633Z,1.50
2022-08-07T06:15:44.434Z,1.40
2022-08-07T06:18:14.108Z,1.30
2022-08-07T06:20:51.127Z,1.30
2022-08-07T06:24:37.160Z,1.40
2022-08-07T06:26:18.944Z,1.30
2022-08-07T06:28:59.654Z,1.50
2022-08-07T06:31:49.354Z,1.30
2022-08-07T06:34:14.649Z,1.20
2022-08-07T06:36:41.576Z,1.20
2022-08-07T06:40:16.463Z,1.40
2022-08-07T06:42:32.926Z,1.20
2022-08-07T06:45:03.439Z,1.20
2022-08-07T06:47:38.662Z,1.30
2022-08-07T06:50:15.197Z,1.10
2022-08-07T06:52:55.799Z,1.20
2022-08-07T06:55:47.977Z,1.20
2022-08-07T06:58:21.538Z,1.00
2022-08-07T07:00:53.252Z,1.20
2022-08-07T07:03:26.508Z,1.10
2022-08-07T07:06:11.449Z,1.20
2022-08-07T07:08:39.683Z,1.10
2022-08-07T07:12:07.517Z,1.30
2022-08-07T07:14:02.821Z,1.10
2022-08-07T07:16:39.235Z,1.30
2022-08-07T07:19:56.374Z,1.10
2022-08-07T07:22:34.095Z,1.00
2022-08-07T07:25:03.088Z,1.00
2022-08-07T07:27:56.131Z,1.30
2022-08-07T07:30:40.081Z,1.20
2022-08-07T07:33:12.425Z,1.20
2022-08-07T07:36:04.965Z,0.90
2022-08-07T07:38:34.867Z,0.90
2022-08-07T07:41:08.813Z,1.10
2022-08-07T07:43:48.233Z,1.30
2022-08-07T07:46:53.334Z,1.20
2022-08-07T07:50:36.255Z,0.90
2022-08-07T07:52:10.584Z,1.20
2022-08-07T07:54:39.949Z,1.30
2022-08-07T07:57:51.480Z,1.10
2022-08-07T08:00:10.831Z,1.10
2022-08-07T08:03:04.720Z,1.30
2022-08-07T08:05:30.307Z,1.10
2022-08-07T08:08:33.788Z,1.20
2022-08-07T08:11:04.605Z,1.10
2022-08-07T08:13:36.613Z,1.30
2022-08-07T08:16:31.491Z,1.20
2022-08-07T08:19:17.440Z,1.30
2022-08-07T08:22:09.742Z,1.20
2022-08-07T08:25:18.220Z,1.00
2022-08-07T08:27:57.505Z,1.10
2022-08-07T08:30:34.500Z,1.20
2022-08-07T08:33:15.110Z,0.90
2022-08-07T08:35:50.632Z,1.30
2022-08-07T08:38:29.265Z,1.30
2022-08-07T08:41:11.627Z,1.40
2022-08-07T08:43:59.528Z,1.00
2022-08-07T08:46:44.993Z,1.10
2022-08-07T08:49:57.194Z,1.10
2022-08-07T08:52:35.953Z,1.00
2022-08-07T08:55:55.018Z,1.10
2022-08-07T08:58:28.811Z,1.00
2022-08-07T09:01:15.971Z,1.10
2022-08-07T09:03:55.271Z,0.90
2022-08-07T09:07:06.134Z,1.10
2022-08-07T09:10:05.283Z,1.40
2022-08-07T09:13:03.599Z,1.10
2022-08-07T09:16:22.695Z,1.20
2022-08-07T09:19:07.341Z,1.20
2022-08-07T09:24:32.610Z,1.20
2022-08-07T09:25:17.794Z,1.10
2022-08-07T09:28:03.270Z,1.40
2022-08-07T09:31:20.165Z,1.10
2022-08-07T09:34:14.902Z,1.50
2022-08-07T09:37:10.111Z,1.20
2022-08-07T09:40:08.866Z,1.10
2022-08-07T09:43:14.571Z,1.10
2022-08-07T09:47:52.061Z,1.00
2022-08-07T09:50:02.567Z,1.00
2022-08-07T09:52:33.531Z,1.20
2022-08-07T09:55:17.372Z,1.20
2022-08-07T09:58:32.168Z,1.00
2022-08-07T10:01:52.419Z,1.00
2022-08-07T10:04:38.274Z,1.00
2022-08-07T10:08:06.305Z,1.20
2022-08-07T10:11:59.406Z,1.00
2022-08-07T10:14:07.125Z,0.90
2022-08-07T10:17:18.055Z,1.10
2022-08-07T10:20:31.699Z,1.00
2022-08-07T10:24:06.856Z,1.10
2022-08-07T10:27:46.265Z,1.00
2022-08-07T10:30:26.362Z,1.00
2022-08-07T10:32:59.807Z,0.70
2022-08-07T10:36:05.563Z,1.30
2022-08-07T10:39:06.092Z,0.90
2022-08-07T10:41:47.152Z,1.20
2022-08-07T10:44:45.363Z,1.00
2022-08-07T10:47:17.825Z,1.00
2022-08-07T10:50:02.268Z,1.00
2022-08-07T10:52:40.170Z,0.70
2022-08-07T10:55:36.952Z,0.90
2022-08-07T10:58:59.995Z,0.80
2022-08-07T11:02:04.800Z,0.90
2022-08-07T11:05:35.833Z,0.90
2022-08-07T11:08:52.801Z,1.00
2022-08-07T11:11:45.876Z,0.80
2022-08-07T11:14:59.830Z,0.90
2022-08-07T11:17:54.029Z,0.90
2022-08-07T11:20:30.836Z,0.80
2022-08-07T11:23:20.827Z,0.90
2022-08-07T11:26:50.051Z,0.90
2022-08-07T11:29:42.943Z,1.00
2022-08-07T11:32:35.527Z,0.80
2022-08-07T11:35:26.805Z,0.90
2022-08-07T11:38:12.845Z,0.80
2022-08-07T11:40:59.337Z,0.90
2022-08-07T11:44:10.943Z,0.80
2022-08-07T11:47:04.782Z,0.70
2022-08-07T11:50:30.756Z,0.80
2022-08-07T11:53:19.109Z,1.00
2022-08-07T11:56:25.131Z,1.00
2022-08-07T12:00:10.212Z,1.10
2022-08-07T12:03:41.921Z,0.80
2022-08-07T12:06:38.918Z,0.90
2022-08-07T12:09:33.694Z,1.00
2022-08-07T12:12:12.441Z,0.80
2022-08-07T12:14:53.887Z,0.90
2022-08-07T12:17:59.458Z,0.80
2022-08-07T12:21:02.032Z,0.90
2022-08-07T12:24:06.047Z,0.90
2022-08-07T12:26:47.030Z,1.00
2022-08-07T12:29:59.489Z,0.80
2022-08-07T12:32:43.870Z,0.80
2022-08-07T12:35:14.737Z,1.00
2022-08-07T12:38:10.870Z,1.00
2022-08-07T12:40:47.845Z,1.20
2022-08-07T12:44:04.181Z,1.10
2022-08-07T12:46:42.837Z,0.90
2022-08-07T12:49:48.873Z,0.90
2022-08-07T12:52:41.787Z,0.80
2022-08-07T12:55:40.628Z,0.90
2022-08-07T12:58:14.270Z,1.10
2022-08-07T13:01:07.635Z,1.00
2022-08-07T13:04:09.733Z,0.90
2022-08-07T13:08:11.640Z,0.90
2022-08-07T13:10:39.438Z,0.90
2022-08-07T13:13:46.915Z,0.90
2022-08-07T13:16:54.911Z,0.90
2022-08-07T13:19:50.425Z,0.70
2022-08-07T13:22:32.309Z,1.00
2022-08-07T13:25:10.529Z,0.80
2022-08-07T13:28:10.861Z,0.90
2022-08-07T13:30:53.268Z,1.00
2022-08-07T13:34:30.241Z,0.80
2022-08-07T13:36:41.758Z,0.90
2022-08-07T13:40:34.268Z,0.90
2022-08-07T13:42:19.127Z,1.00
2022-08-07T13:45:11.717Z,1.00
2022-08-07T13:48:06.109Z,1.20
2022-08-07T13:50:34.993Z,0.80
2022-08-07T13:53:23.734Z,0.80
2022-08-07T13:55:54.621Z,0.90
2022-08-07T13:58:56.632Z,1.10
2022-08-07T14:01:27.485Z,1.10
2022-08-07T14:04:10.020Z,1.10
2022-08-07T14:06:48.553Z,1.00
2022-08-07T14:10:01.974Z,1.10
2022-08-07T14:12:28.062Z,0.90
2022-08-07T14:15:02.976Z,1.00
2022-08-07T14:18:24.237Z,1.00
2022-08-07T14:20:39.401Z,1.40
2022-08-07T14:23:31.462Z,1.30
2022-08-07T14:26:27.966Z,1.30
2022-08-07T14:29:06.079Z,1.60
2022-08-07T14:31:43.008Z,1.20
2022-08-07T14:34:29.937Z,1.30
2022-08-07T14:37:01.975Z,1.20
2022-08-07T14:40:15.654Z,1.10
2022-08-07T14:42:31.411Z,1.30
2022-08-07T14:47:58.602Z,1.10
2022-08-07T14:50:28.983Z,1.20
2022-08-07T14:53:09.788Z,1.50
2022-08-07T14:55:55.395Z,1.20
2022-08-07T14:58:31.425Z,1.30
2022-08-07T15:01:21.624Z,1.40
2022-08-07T15:03:51.684Z,1.40
2022-08-07T15:06:29.766Z,1.30
2022-08-07T15:12:10.002Z,1.30
2022-08-07T15:15:00.079Z,1.30
2022-08-07T15:17:55.377Z,1.20
2022-08-07T15:25:03.140Z,1.00
2022-08-07T15:26:22.393Z,1.30
2022-08-07T15:29:00.963Z,1.10
2022-08-07T15:34:50.289Z,1.20
2022-08-07T15:40:34.142Z,1.10
2022-08-07T15:43:53.069Z,1.00
2022-08-07T15:46:31.921Z,1.00
2022-08-07T15:49:12.898Z,1.00
2022-08-07T15:54:34.250Z,0.90
2022-08-07T15:57:03.399Z,0.90
2022-08-07T15:59:39.982Z,1.10
2022-08-07T16:02:24.278Z,0.90
2022-08-07T16:05:04.282Z,1.10
2022-08-07T16:08:33.332Z,1.00
2022-08-07T16:11:04.718Z,1.00
2022-08-07T16:14:03.144Z,1.10
2022-08-07T16:16:48.344Z,0.90
2022-08-07T16:19:58.975Z,1.20
2022-08-07T16:23:09.821Z,1.00
2022-08-07T16:25:55.778Z,0.80
2022-08-07T16:30:08.382Z,0.90
2022-08-07T16:31:58.149Z,1.10
2022-08-07T16:34:48.340Z,1.00
2022-08-07T16:38:04.365Z,1.00
2022-08-07T16:40:57.090Z,1.00
2022-08-07T16:44:47.547Z,0.80
2022-08-07T16:47:57.022Z,0.90
2022-08-07T16:51:20.568Z,1.00
2022-08-07T16:54:19.275Z,0.80
2022-08-07T16:56:55.350Z,1.10
2022-08-07T16:59:58.018Z,1.00
2022-08-07T17:02:53.517Z,0.90
2022-08-07T17:06:01.688Z,1.00
2022-08-07T17:09:04.399Z,0.90
2022-08-07T17:12:04.873Z,1.00
2022-08-07T17:15:07.420Z,1.10
2022-08-07T17:17:52.052Z,0.90
2022-08-07T17:20:33.287Z,0.90
2022-08-07T17:23:13.019Z,1.10
2022-08-07T17:26:24.318Z,1.10
2022-08-07T17:30:13.048Z,1.20
2022-08-07T17:32:55.744Z,1.10
2022-08-07T17:35:55.953Z,1.10
2022-08-07T17:38:35.726Z,1.10
2022-08-07T17:42:05.007Z,1.10
2022-08-07T17:44:34.109Z,1.00
2022-08-07T17:47:44.618Z,1.10
2022-08-07T17:50:32.441Z,1.20
2022-08-07T17:54:01.803Z,1.10
2022-08-07T17:56:32.869Z,1.40
2022-08-07T17:59:10.757Z,1.40
2022-08-07T18:02:23.502Z,1.20
2022-08-07T18:05:21.991Z,1.20
2022-08-07T18:08:31.659Z,1.20
2022-08-07T18:12:17.625Z,1.10
2022-08-07T18:14:23.751Z,1.00
2022-08-07T18:17:10.794Z,1.10
2022-08-07T18:21:11.606Z,1.10
2022-08-07T18:23:05.924Z,1.00
2022-08-07T18:26:01.541Z,1.50
2022-08-07T18:28:57.918Z,1.10
2022-08-07T18:31:49.969Z,1.20
2022-08-07T18:35:01.645Z,1.30
2022-08-07T18:38:55.491Z,1.30
2022-08-07T18:40:53.470Z,1.30
2022-08-07T18:44:11.648Z,1.60
2022-08-07T18:47:21.010Z,1.40
2022-08-07T18:50:39.174Z,1.20
2022-08-07T18:53:39.507Z,1.60
2022-08-07T18:57:29.360Z,1.90
2022-08-07T19:00:32.677Z,1.50
2022-08-07T19:03:16.151Z,1.20
2022-08-07T19:06:03.466Z,1.00
2022-08-07T19:08:49.504Z,1.20
2022-08-07T19:12:04.221Z,1.80
2022-08-07T19:14:52.831Z,1.70
2022-08-07T19:18:01.670Z,1.70
2022-08-07T19:21:09.289Z,1.40
2022-08-07T19:23:59.021Z,1.40
2022-08-07T19:27:16.815Z,1.70
2022-08-07T19:31:06.375Z,1.70
2022-08-07T19:32:25.879Z,2.00
2022-08-07T19:35:13.640Z,1.80
2022-08-07T19:37:57.341Z,1.90
2022-08-07T19:40:31.771Z,2.00
2022-08-07T19:43:08.616Z,1.90
2022-08-07T19:46:07.486Z,1.90
2022-08-07T19:48:42.293Z,1.80
2022-08-07T19:51:20.409Z,1.80
2022-08-07T19:54:29.705Z,1.70
2022-08-07T19:57:56.736Z,1.90
2022-08-07T19:59:47.071Z,2.00
2022-08-07T20:02:28.900Z,1.90
2022-08-07T20:04:56.562Z,2.10
2022-08-07T20:07:45.820Z,2.10
2022-08-07T20:10:37.332Z,2.50
2022-08-07T20:13:22.810Z,2.80
2022-08-07T20:15:53.910Z,3.10
2022-08-07T20:18:32.894Z,3.30
2022-08-07T20:21:20.824Z,3.20
2022-08-07T20:24:04.084Z,3.40
2022-08-07T20:26:44.950Z,2.90
2022-08-07T20:29:48.648Z,3.20
2022-08-07T20:32:25.675Z,3.10
2022-08-07T20:34:57.807Z,3.30
2022-08-07T20:37:34.032Z,3.00
2022-08-07T20:40:32.165Z,2.80
2022-08-07T20:42:57.370Z,2.50
2022-08-07T20:45:33.371Z,2.30
2022-08-07T20:48:28.727Z,2.50
2022-08-07T20:51:00.704Z,2.60
2022-08-07T20:54:02.777Z,2.50
2022-08-07T20:56:27.412Z,2.80
2022-08-07T20:58:59.622Z,2.40
2022-08-07T21:01:29.768Z,2.70
2022-08-07T21:04:22.044Z,2.50
2022-08-07T21:06:55.371Z,2.00
2022-08-07T21:09:51.811Z,2.20
2022-08-07T21:12:25.899Z,2.20
2022-08-07T21:14:59.363Z,2.40
2022-08-07T21:18:02.602Z,2.10
2022-08-07T21:20:29.820Z,2.30
2022-08-07T21:23:08.605Z,2.60
2022-08-07T21:26:01.483Z,2.90
2022-08-07T21:28:49.434Z,2.60
2022-08-07T21:32:42.332Z,2.70
2022-08-07T21:34:48.209Z,2.50
2022-08-07T21:37:31.435Z,2.50
2022-08-07T21:40:49.375Z,2.50
2022-08-07T21:43:55.444Z,2.20
2022-08-07T21:46:41.077Z,2.10
2022-08-07T21:49:25.612Z,2.20
2022-08-07T21:52:33.234Z,2.10
2022-08-07T21:55:19.441Z,2.40
2022-08-07T21:58:32.188Z,2.30
2022-08-07T22:02:10.545Z,3.10
2022-08-07T22:04:53.783Z,2.10
2022-08-07T22:07:31.870Z,2.00
2022-08-07T22:10:24.589Z,2.40
2022-08-07T22:12:58.279Z,2.10
2022-08-07T22:16:42.182Z,2.20
2022-08-07T22:19:29.703Z,2.00
2022-08-07T22:22:28.687Z,2.50
2022-08-07T22:25:12.011Z,2.40
2022-08-07T22:28:07.831Z,2.80
2022-08-07T22:30:52.929Z,2.60
2022-08-07T22:33:53.363Z,2.00
2022-08-07T22:36:38.505Z,2.40
2022-08-07T22:39:23.593Z,2.50
2022-08-07T22:42:03.976Z,2.70
2022-08-07T22:44:58.976Z,2.20
2022-08-07T22:48:31.687Z,2.70
2022-08-07T22:51:17.739Z,2.40
2022-08-07T22:54:33.566Z,3.20
2022-08-07T22:57:48.939Z,3.00
2022-08-07T23:00:32.202Z,3.10
2022-08-07T23:03:32.314Z,2.90
2022-08-07T23:07:33.600Z,3.00
2022-08-07T23:10:37.819Z,3.00
2022-08-07T23:13:48.928Z,3.00
2022-08-07T23:16:59.036Z,3.00
2022-08-07T23:20:09.522Z,2.80
2022-08-07T23:23:13.100Z,2.80
2022-08-07T23:26:25.206Z,2.90
2022-08-07T23:29:43.735Z,3.00
2022-08-07T23:34:18.823Z,2.70
2022-08-07T23:35:56.281Z,2.40
2022-08-07T23:38:55.137Z,2.50
2022-08-07T23:41:47.700Z,2.80
2022-08-07T23:45:07.233Z,2.60
2022-08-07T23:48:25.072Z,2.30
2022-08-07T23:51:01.601Z,2.00
2022-08-07T23:53:58.834Z,2.50
2022-08-07T23:56:54.027Z,2.20
